Muskegon, Michigan
Current Conditions -  °F | °C
As of 8:29 AM on Friday 24 Oct 2014 (Local Time) from KMKG Reporting Station
Overcast Overcast  
Wind Chill: 54°   Ceiling: 1500
Heat Index: 54°   Visibility: 8mi
Dew Point: 48°   Wind: 8mph
Humidity: 80%   Direction: 240°WSW
Pressure: 30.04"   Gusts: NA
Location:  43.23°N, 86.24°W
Report Text: KMKG 241229Z 24007KT 8SM OVC015 12/09 A3004 RMK AO2 T01220089
Loading
Personal Weather Stations






























Interactive Weather Map New forecast layout! Learn more

10-Day Weather Forecast

Advertisements
Track Severe Weather on mobile